sensor_id;sensor_type;location;lat;lon;timestamp;pressure;altitude;pressure_sealevel;temperature;humidity
8069;BME280;4077;43.702;24.896;2023-02-14T00:01:11;100939.25;;;1.41;100.00
8069;BME280;4077;43.702;24.896;2023-02-14T00:03:37;100935.28;;;1.45;100.00
8069;BME280;4077;43.702;24.896;2023-02-14T00:06:11;100929.72;;;1.50;100.00
8069;BME280;4077;43.702;24.896;2023-02-14T00:08:37;100943.31;;;1.62;100.00
8069;BME280;4077;43.702;24.896;2023-02-14T00:11:05;100944.63;;;1.57;100.00
8069;BME280;4077;43.702;24.896;2023-02-14T00:13:30;100939.00;;;1.61;100.00
8069;BME280;4077;43.702;24.896;2023-02-14T00:15:56;100941.88;;;1.54;100.00
8069;BME280;4077;43.702;24.896;2023-02-14T00:18:21;100935.81;;;1.52;100.00
8069;BME280;4077;43.702;24.896;2023-02-14T00:20:47;100941.88;;;1.54;100.00
8069;BME280;4077;43.702;24.896;2023-02-14T00:23:12;100937.38;;;1.39;100.00
8069;BME280;4077;43.702;24.896;2023-02-14T00:25:38;100940.38;;;1.45;100.00
8069;BME280;4077;43.702;24.896;2023-02-14T00:28:03;100943.25;;;1.38;100.00
8069;BME280;4077;43.702;24.896;2023-02-14T00:30:29;100932.72;;;1.21;100.00
8069;BME280;4077;43.702;24.896;2023-02-14T00:32:54;100936.16;;;1.22;100.00
8069;BME280;4077;43.702;24.896;2023-02-14T00:35:20;100945.56;;;1.23;100.00
8069;BME280;4077;43.702;24.896;2023-02-14T00:37:45;100934.72;;;1.14;100.00
8069;BME280;4077;43.702;24.896;2023-02-14T00:40:12;100939.28;;;1.18;100.00
8069;BME280;4077;43.702;24.896;2023-02-14T00:42:38;100942.56;;;1.17;100.00
8069;BME280;4077;43.702;24.896;2023-02-14T00:45:03;100939.03;;;1.15;100.00
8069;BME280;4077;43.702;24.896;2023-02-14T00:47:29;100924.13;;;1.07;100.00
8069;BME280;4077;43.702;24.896;2023-02-14T00:49:54;100924.66;;;1.15;100.00
8069;BME280;4077;43.702;24.896;2023-02-14T00:52:20;100917.59;;;1.11;100.00
8069;BME280;4077;43.702;24.896;2023-02-14T00:54:45;100903.44;;;1.15;100.00
8069;BME280;4077;43.702;24.896;2023-02-14T00:57:11;100906.22;;;1.18;100.00
8069;BME280;4077;43.702;24.896;2023-02-14T00:59:36;100901.34;;;1.21;100.00
8069;BME280;4077;43.702;24.896;2023-02-14T01:02:02;100903.97;;;1.22;100.00
8069;BME280;4077;43.702;24.896;2023-02-14T01:04:27;100907.75;;;1.27;100.00
8069;BME280;4077;43.702;24.896;2023-02-14T01:06:52;100883.97;;;1.27;100.00
8069;BME280;4077;43.702;24.896;2023-02-14T01:09:18;100870.72;;;1.19;100.00
8069;BME280;4077;43.702;24.896;2023-02-14T01:11:43;100853.91;;;1.09;100.00
8069;BME280;4077;43.702;24.896;2023-02-14T01:14:09;100851.50;;;1.11;100.00
8069;BME280;4077;43.702;24.896;2023-02-14T01:16:34;100856.09;;;1.17;100.00
8069;BME280;4077;43.702;24.896;2023-02-14T01:19:00;100854.91;;;1.12;100.00
8069;BME280;4077;43.702;24.896;2023-02-14T01:21:32;100860.31;;;1.16;100.00
8069;BME280;4077;43.702;24.896;2023-02-14T01:24:02;100850.63;;;1.11;100.00
8069;BME280;4077;43.702;24.896;2023-02-14T01:26:28;100842.75;;;1.07;100.00
8069;BME280;4077;43.702;24.896;2023-02-14T01:28:54;100850.63;;;1.11;100.00
8069;BME280;4077;43.702;24.896;2023-02-14T01:31:26;100832.81;;;1.11;100.00
8069;BME280;4077;43.702;24.896;2023-02-14T01:33:53;100822.75;;;1.00;100.00
8069;BME280;4077;43.702;24.896;2023-02-14T01:36:27;100842.84;;;1.21;100.00
8069;BME280;4077;43.702;24.896;2023-02-14T01:38:55;100839.50;;;1.22;100.00
8069;BME280;4077;43.702;24.896;2023-02-14T01:41:21;100834.22;;;1.19;100.00
8069;BME280;4077;43.702;24.896;2023-02-14T01:43:58;100836.28;;;1.36;100.00
8069;BME280;4077;43.702;24.896;2023-02-14T01:46:25;100835.75;;;1.28;100.00
8069;BME280;4077;43.702;24.896;2023-02-14T01:48:54;100829.44;;;1.35;100.00
8069;BME280;4077;43.702;24.896;2023-02-14T01:51:22;100827.31;;;1.41;100.00
8069;BME280;4077;43.702;24.896;2023-02-14T01:53:48;100826.44;;;1.41;100.00
8069;BME280;4077;43.702;24.896;2023-02-14T01:56:20;100822.97;;;1.52;100.00
8069;BME280;4077;43.702;24.896;2023-02-14T01:58:52;100824.63;;;1.51;100.00
8069;BME280;4077;43.702;24.896;2023-02-14T02:01:20;100838.00;;;1.49;100.00
8069;BME280;4077;43.702;24.896;2023-02-14T02:04:00;100841.09;;;1.56;100.00
8069;BME280;4077;43.702;24.896;2023-02-14T02:07:00;100854.88;;;1.72;100.00
8069;BME280;4077;43.702;24.896;2023-02-14T02:11:56;100824.72;;;1.78;100.00
8069;BME280;4077;43.702;24.896;2023-02-14T02:14:22;100817.25;;;1.68;100.00
8069;BME280;4077;43.702;24.896;2023-02-14T02:35:57;100783.50;;;1.45;100.00
8069;BME280;4077;43.702;24.896;2023-02-14T02:43:59;100770.00;;;1.46;100.00
8069;BME280;4077;43.702;24.896;2023-02-14T02:46:41;100773.69;;;1.38;100.00
8069;BME280;4077;43.702;24.896;2023-02-14T02:52:01;100775.81;;;1.32;100.00
8069;BME280;4077;43.702;24.896;2023-02-14T02:54:53;100782.66;;;1.33;100.00
8069;BME280;4077;43.702;24.896;2023-02-14T02:57:31;100782.03;;;1.49;100.00
8069;BME280;4077;43.702;24.896;2023-02-14T02:59:59;100783.00;;;1.38;100.00
8069;BME280;4077;43.702;24.896;2023-02-14T03:02:30;100778.44;;;1.33;100.00
8069;BME280;4077;43.702;24.896;2023-02-14T03:05:01;100784.53;;;1.35;100.00
8069;BME280;4077;43.702;24.896;2023-02-14T03:07:34;100786.88;;;1.32;100.00
8069;BME280;4077;43.702;24.896;2023-02-14T03:21:03;100774.44;;;1.37;100.00
8069;BME280;4077;43.702;24.896;2023-02-14T03:23:38;100781.31;;;1.38;100.00
8069;BME280;4077;43.702;24.896;2023-02-14T03:26:16;100781.97;;;1.35;100.00
8069;BME280;4077;43.702;24.896;2023-02-14T03:34:09;100786.41;;;1.38;100.00
8069;BME280;4077;43.702;24.896;2023-02-14T03:36:45;100776.69;;;1.32;100.00
8069;BME280;4077;43.702;24.896;2023-02-14T03:42:01;100769.00;;;1.19;100.00
8069;BME280;4077;43.702;24.896;2023-02-14T03:44:31;100761.03;;;1.15;100.00
8069;BME280;4077;43.702;24.896;2023-02-14T03:47:26;100758.75;;;1.06;100.00
8069;BME280;4077;43.702;24.896;2023-02-14T03:50:01;100750.66;;;1.12;100.00
8069;BME280;4077;43.702;24.896;2023-02-14T03:52:29;100753.31;;;1.13;100.00
8069;BME280;4077;43.702;24.896;2023-02-14T03:54:56;100743.56;;;1.19;100.00
8069;BME280;4077;43.702;24.896;2023-02-14T04:00:19;100744.22;;;1.17;100.00
8069;BME280;4077;43.702;24.896;2023-02-14T04:02:52;100740.91;;;1.18;100.00
8069;BME280;4077;43.702;24.896;2023-02-14T04:05:23;100737.59;;;1.19;100.00
8069;BME280;4077;43.702;24.896;2023-02-14T04:07:52;100721.69;;;1.09;100.00
8069;BME280;4077;43.702;24.896;2023-02-14T04:10:18;100731.19;;;1.12;100.00
8069;BME280;4077;43.702;24.896;2023-02-14T04:12:44;100735.59;;;1.15;100.00
8069;BME280;4077;43.702;24.896;2023-02-14T04:15:11;100751.28;;;1.21;100.00
8069;BME280;4077;43.702;24.896;2023-02-14T04:17:37;100752.84;;;1.19;100.00
8069;BME280;4077;43.702;24.896;2023-02-14T04:20:21;100743.38;;;1.04;100.00
8069;BME280;4077;43.702;24.896;2023-02-14T04:22:47;100742.03;;;1.09;100.00
8069;BME280;4077;43.702;24.896;2023-02-14T04:25:13;100720.50;;;1.04;100.00
8069;BME280;4077;43.702;24.896;2023-02-14T04:27:39;100727.19;;;1.16;100.00
8069;BME280;4077;43.702;24.896;2023-02-14T04:30:05;100730.94;;;1.21;100.00
8069;BME280;4077;43.702;24.896;2023-02-14T04:32:31;100741.53;;;1.27;100.00
8069;BME280;4077;43.702;24.896;2023-02-14T04:34:56;100745.06;;;1.29;100.00
8069;BME280;4077;43.702;24.896;2023-02-14T04:37:22;100746.06;;;1.31;100.00
8069;BME280;4077;43.702;24.896;2023-02-14T04:39:47;100737.94;;;1.36;100.00
8069;BME280;4077;43.702;24.896;2023-02-14T04:42:13;100733.44;;;1.32;100.00
8069;BME280;4077;43.702;24.896;2023-02-14T04:44:38;100736.78;;;1.31;100.00
8069;BME280;4077;43.702;24.896;2023-02-14T04:47:04;100737.94;;;1.36;100.00
8069;BME280;4077;43.702;24.896;2023-02-14T04:49:30;100740.19;;;1.32;100.00
8069;BME280;4077;43.702;24.896;2023-02-14T04:51:55;100744.84;;;1.38;100.00
8069;BME280;4077;43.702;24.896;2023-02-14T04:54:21;100736.28;;;1.37;100.00
8069;BME280;4077;43.702;24.896;2023-02-14T04:56:46;100733.75;;;1.37;100.00
8069;BME280;4077;43.702;24.896;2023-02-14T04:59:12;100741.50;;;1.39;100.00
8069;BME280;4077;43.702;24.896;2023-02-14T05:01:39;100745.84;;;1.28;100.00
8069;BME280;4077;43.702;24.896;2023-02-14T05:04:04;100733.47;;;1.21;100.00
8069;BME280;4077;43.702;24.896;2023-02-14T05:06:30;100728.19;;;1.18;100.00
8069;BME280;4077;43.702;24.896;2023-02-14T05:08:55;100721.22;;;1.15;100.00
8069;BME280;4077;43.702;24.896;2023-02-14T05:11:21;100731.09;;;1.11;100.00
8069;BME280;4077;43.702;24.896;2023-02-14T05:13:56;100734.47;;;1.23;100.00
8069;BME280;4077;43.702;24.896;2023-02-14T05:16:22;100740.06;;;1.05;100.00
8069;BME280;4077;43.702;24.896;2023-02-14T05:18:48;100739.28;;;1.06;100.00
8069;BME280;4077;43.702;24.896;2023-02-14T05:21:13;100740.53;;;1.00;100.00
8069;BME280;4077;43.702;24.896;2023-02-14T05:23:39;100744.47;;;1.08;100.00
8069;BME280;4077;43.702;24.896;2023-02-14T05:26:04;100736.75;;;1.06;100.00
8069;BME280;4077;43.702;24.896;2023-02-14T05:28:30;100745.34;;;1.08;100.00
8069;BME280;4077;43.702;24.896;2023-02-14T05:30:55;100744.00;;;1.14;100.00
8069;BME280;4077;43.702;24.896;2023-02-14T05:33:24;100751.75;;;1.15;100.00
8069;BME280;4077;43.702;24.896;2023-02-14T05:35:50;100750.41;;;1.20;100.00
8069;BME280;4077;43.702;24.896;2023-02-14T05:38:16;100734.56;;;0.99;100.00
8069;BME280;4077;43.702;24.896;2023-02-14T05:40:42;100751.84;;;1.17;100.00
8069;BME280;4077;43.702;24.896;2023-02-14T05:43:08;100755.94;;;1.15;100.00
8069;BME280;4077;43.702;24.896;2023-02-14T05:45:35;100753.50;;;1.16;100.00
8069;BME280;4077;43.702;24.896;2023-02-14T05:48:00;100751.81;;;1.03;100.00
8069;BME280;4077;43.702;24.896;2023-02-14T05:50:26;100762.59;;;1.13;100.00
8069;BME280;4077;43.702;24.896;2023-02-14T05:52:51;100750.44;;;1.08;100.00
8069;BME280;4077;43.702;24.896;2023-02-14T05:55:17;100753.75;;;1.07;100.00
8069;BME280;4077;43.702;24.896;2023-02-14T05:57:42;100737.63;;;1.07;100.00
8069;BME280;4077;43.702;24.896;2023-02-14T06:00:09;100740.72;;;1.03;100.00
8069;BME280;4077;43.702;24.896;2023-02-14T06:02:35;100744.78;;;1.13;100.00
8069;BME280;4077;43.702;24.896;2023-02-14T06:05:00;100737.59;;;1.19;100.00
8069;BME280;4077;43.702;24.896;2023-02-14T06:07:25;100752.41;;;1.24;100.00
8069;BME280;4077;43.702;24.896;2023-02-14T06:09:55;100751.09;;;1.18;100.00
8069;BME280;4077;43.702;24.896;2023-02-14T06:12:20;100755.91;;;1.26;100.00
8069;BME280;4077;43.702;24.896;2023-02-14T06:14:46;100759.25;;;1.25;100.00
8069;BME280;4077;43.702;24.896;2023-02-14T06:17:11;100764.84;;;1.33;100.00
8069;BME280;4077;43.702;24.896;2023-02-14T06:19:37;100758.31;;;1.36;100.00
8069;BME280;4077;43.702;24.896;2023-02-14T06:22:02;100758.09;;;1.33;100.00
8069;BME280;4077;43.702;24.896;2023-02-14T06:24:28;100762.50;;;1.36;100.00
8069;BME280;4077;43.702;24.896;2023-02-14T06:26:54;100760.25;;;1.52;100.00
8069;BME280;4077;43.702;24.896;2023-02-14T06:29:19;100759.28;;;1.63;100.00
8069;BME280;4077;43.702;24.896;2023-02-14T06:31:45;100767.69;;;1.62;100.00
8069;BME280;4077;43.702;24.896;2023-02-14T06:34:10;100763.44;;;1.75;100.00
8069;BME280;4077;43.702;24.896;2023-02-14T06:36:36;100758.75;;;1.81;100.00
8069;BME280;4077;43.702;24.896;2023-02-14T06:39:02;100757.78;;;1.92;100.00
8069;BME280;4077;43.702;24.896;2023-02-14T06:41:27;100756.25;;;1.94;100.00
8069;BME280;4077;43.702;24.896;2023-02-14T06:43:53;100753.97;;;1.99;100.00
8069;BME280;4077;43.702;24.896;2023-02-14T06:46:18;100760.88;;;2.00;100.00
8069;BME280;4077;43.702;24.896;2023-02-14T06:48:44;100762.53;;;2.12;100.00
8069;BME280;4077;43.702;24.896;2023-02-14T06:51:10;100764.97;;;2.11;100.00
8069;BME280;4077;43.702;24.896;2023-02-14T06:53:35;100782.34;;;2.16;100.00
8069;BME280;4077;43.702;24.896;2023-02-14T06:56:01;100787.25;;;2.13;100.00
8069;BME280;4077;43.702;24.896;2023-02-14T06:58:27;100785.47;;;2.26;100.00
8069;BME280;4077;43.702;24.896;2023-02-14T07:00:56;100791.66;;;2.29;100.00
8069;BME280;4077;43.702;24.896;2023-02-14T07:03:22;100788.81;;;2.25;100.00
8069;BME280;4077;43.702;24.896;2023-02-14T07:05:48;100785.88;;;2.32;100.00
8069;BME280;4077;43.702;24.896;2023-02-14T07:08:13;100784.34;;;2.34;100.00
8069;BME280;4077;43.702;24.896;2023-02-14T07:10:39;100788.03;;;2.39;100.00
8069;BME280;4077;43.702;24.896;2023-02-14T07:13:05;100798.06;;;2.89;100.00
8069;BME280;4077;43.702;24.896;2023-02-14T07:15:30;100804.06;;;4.01;100.00
8069;BME280;4077;43.702;24.896;2023-02-14T07:17:55;100803.84;;;4.72;100.00
8069;BME280;4077;43.702;24.896;2023-02-14T07:20:21;100812.78;;;5.26;100.00
8069;BME280;4077;43.702;24.896;2023-02-14T07:22:46;100823.78;;;5.72;93.93
8069;BME280;4077;43.702;24.896;2023-02-14T07:25:12;100819.81;;;6.28;86.88
8069;BME280;4077;43.702;24.896;2023-02-14T07:27:38;100829.31;;;6.47;81.04
8069;BME280;4077;43.702;24.896;2023-02-14T07:30:05;100833.56;;;6.46;79.93
8069;BME280;4077;43.702;24.896;2023-02-14T07:32:31;100821.25;;;6.39;79.57
8069;BME280;4077;43.702;24.896;2023-02-14T07:34:56;100813.94;;;6.13;81.81
8069;BME280;4077;43.702;24.896;2023-02-14T07:37:22;100831.00;;;6.46;78.98
8069;BME280;4077;43.702;24.896;2023-02-14T07:39:47;100825.03;;;6.29;79.75
8069;BME280;4077;43.702;24.896;2023-02-14T07:42:13;100816.97;;;5.89;83.69
8069;BME280;4077;43.702;24.896;2023-02-14T07:44:38;100826.00;;;5.97;84.41
8069;BME280;4077;43.702;24.896;2023-02-14T07:47:05;100802.50;;;5.73;86.51
8069;BME280;4077;43.702;24.896;2023-02-14T07:49:31;100812.09;;;5.61;91.31
8069;BME280;4077;43.702;24.896;2023-02-14T07:51:56;100806.00;;;5.75;94.38
8069;BME280;4077;43.702;24.896;2023-02-14T07:54:22;100815.84;;;5.68;93.89
8069;BME280;4077;43.702;24.896;2023-02-14T07:56:48;100812.19;;;5.79;91.98
8069;BME280;4077;43.702;24.896;2023-02-14T07:59:13;100817.94;;;6.08;90.13
8069;BME280;4077;43.702;24.896;2023-02-14T08:01:39;100816.00;;;6.20;86.72
8069;BME280;4077;43.702;24.896;2023-02-14T08:04:04;100807.38;;;6.01;88.25
8069;BME280;4077;43.702;24.896;2023-02-14T08:06:29;100815.06;;;5.69;90.03
8069;BME280;4077;43.702;24.896;2023-02-14T08:08:55;100800.97;;;5.44;93.59
8069;BME280;4077;43.702;24.896;2023-02-14T08:11:21;100812.78;;;5.26;95.90
8069;BME280;4077;43.702;24.896;2023-02-14T08:14:05;100807.44;;;4.90;100.00
8069;BME280;4077;43.702;24.896;2023-02-14T08:16:30;100799.59;;;4.73;100.00
8069;BME280;4077;43.702;24.896;2023-02-14T08:18:58;100791.34;;;4.62;100.00
8069;BME280;4077;43.702;24.896;2023-02-14T08:21:23;100797.50;;;4.65;100.00
8069;BME280;4077;43.702;24.896;2023-02-14T08:23:49;100788.16;;;4.66;100.00
8069;BME280;4077;43.702;24.896;2023-02-14T08:26:14;100799.56;;;5.02;100.00
8069;BME280;4077;43.702;24.896;2023-02-14T08:28:40;100799.25;;;5.12;100.00
8069;BME280;4077;43.702;24.896;2023-02-14T08:31:05;100786.84;;;5.20;100.00
8069;BME280;4077;43.702;24.896;2023-02-14T08:33:31;100805.13;;;5.59;100.00
8069;BME280;4077;43.702;24.896;2023-02-14T08:35:56;100798.88;;;5.54;100.00
8069;BME280;4077;43.702;24.896;2023-02-14T08:38:22;100793.47;;;5.64;100.00
8069;BME280;4077;43.702;24.896;2023-02-14T08:40:47;100789.59;;;5.56;100.00
8069;BME280;4077;43.702;24.896;2023-02-14T08:43:12;100804.81;;;5.53;100.00
8069;BME280;4077;43.702;24.896;2023-02-14T08:45:38;100779.66;;;5.62;100.00
8069;BME280;4077;43.702;24.896;2023-02-14T08:48:07;100790.94;;;5.82;100.00
8069;BME280;4077;43.702;24.896;2023-02-14T08:50:33;100784.97;;;5.97;98.62
8069;BME280;4077;43.702;24.896;2023-02-14T08:52:59;100796.31;;;6.19;96.67
8069;BME280;4077;43.702;24.896;2023-02-14T08:55:25;100793.75;;;6.02;96.17
8069;BME280;4077;43.702;24.896;2023-02-14T08:57:54;100808.16;;;6.17;96.67
8069;BME280;4077;43.702;24.896;2023-02-14T09:00:20;100809.94;;;6.18;96.29
8069;BME280;4077;43.702;24.896;2023-02-14T09:02:49;100807.31;;;6.34;94.52
8069;BME280;4077;43.702;24.896;2023-02-14T09:05:15;100800.50;;;6.35;93.21
8069;BME280;4077;43.702;24.896;2023-02-14T09:07:41;100809.69;;;6.47;91.62
8069;BME280;4077;43.702;24.896;2023-02-14T09:10:07;100804.69;;;6.50;90.40
8069;BME280;4077;43.702;24.896;2023-02-14T09:12:32;100793.28;;;6.62;91.33
8069;BME280;4077;43.702;24.896;2023-02-14T09:14:58;100796.34;;;6.54;86.72
8069;BME280;4077;43.702;24.896;2023-02-14T09:17:23;100800.97;;;6.62;86.30
8069;BME280;4077;43.702;24.896;2023-02-14T09:19:49;100801.19;;;6.84;83.72
8069;BME280;4077;43.702;24.896;2023-02-14T09:22:14;100810.84;;;6.90;83.75
8069;BME280;4077;43.702;24.896;2023-02-14T09:24:40;100814.94;;;6.86;86.03
8069;BME280;4077;43.702;24.896;2023-02-14T09:27:06;100809.41;;;6.77;83.28
8069;BME280;4077;43.702;24.896;2023-02-14T09:29:32;100814.38;;;6.74;83.92
8069;BME280;4077;43.702;24.896;2023-02-14T09:31:59;100813.66;;;6.94;82.09
8069;BME280;4077;43.702;24.896;2023-02-14T09:34:26;100809.47;;;7.33;77.76
8069;BME280;4077;43.702;24.896;2023-02-14T09:37:11;100808.44;;;8.07;71.23
8069;BME280;4077;43.702;24.896;2023-02-14T09:39:37;100802.53;;;8.50;68.49
8069;BME280;4077;43.702;24.896;2023-02-14T09:45:04;100814.28;;;9.76;62.11
8069;BME280;4077;43.702;24.896;2023-02-14T09:50:32;100818.81;;;9.36;63.23
8069;BME280;4077;43.702;24.896;2023-02-14T09:53:07;100793.81;;;8.26;67.12
8069;BME280;4077;43.702;24.896;2023-02-14T09:56:19;100799.44;;;7.77;71.31
8069;BME280;4077;43.702;24.896;2023-02-14T10:01:42;100787.31;;;7.35;73.67
8069;BME280;4077;43.702;24.896;2023-02-14T10:04:39;100774.84;;;7.25;74.34
8069;BME280;4077;43.702;24.896;2023-02-14T10:07:34;100778.41;;;7.09;77.11
8069;BME280;4077;43.702;24.896;2023-02-14T10:15:25;100774.25;;;7.31;76.57
8069;BME280;4077;43.702;24.896;2023-02-14T10:17:54;100782.09;;;7.53;75.25
8069;BME280;4077;43.702;24.896;2023-02-14T10:20:31;100782.38;;;7.59;74.71
8069;BME280;4077;43.702;24.896;2023-02-14T10:23:14;100762.91;;;7.45;73.69
8069;BME280;4077;43.702;24.896;2023-02-14T10:25:46;100767.59;;;7.34;72.22
8069;BME280;4077;43.702;24.896;2023-02-14T10:28:13;100750.88;;;7.44;72.46
8069;BME280;4077;43.702;24.896;2023-02-14T10:30:50;100753.06;;;7.35;71.76
8069;BME280;4077;43.702;24.896;2023-02-14T10:33:24;100762.97;;;7.47;70.88
8069;BME280;4077;43.702;24.896;2023-02-14T10:36:46;100761.53;;;7.53;69.75
8069;BME280;4077;43.702;24.896;2023-02-14T10:41:29;100752.16;;;7.54;68.39
8069;BME280;4077;43.702;24.896;2023-02-14T10:44:10;100761.88;;;7.80;66.95
8069;BME280;4077;43.702;24.896;2023-02-14T10:49:57;100757.34;;;7.75;65.93
8069;BME280;4077;43.702;24.896;2023-02-14T10:52:30;100753.84;;;7.73;64.68
8069;BME280;4077;43.702;24.896;2023-02-14T10:55:04;100745.44;;;7.77;64.10
8069;BME280;4077;43.702;24.896;2023-02-14T10:57:36;100740.66;;;7.65;63.83
8069;BME280;4077;43.702;24.896;2023-02-14T11:00:04;100743.44;;;7.70;63.43
8069;BME280;4077;43.702;24.896;2023-02-14T11:02:36;100745.75;;;7.63;63.08
8069;BME280;4077;43.702;24.896;2023-02-14T11:05:04;100730.00;;;7.56;62.57
8069;BME280;4077;43.702;24.896;2023-02-14T11:07:30;100735.28;;;7.80;62.34
8069;BME280;4077;43.702;24.896;2023-02-14T11:09:56;100726.50;;;7.75;62.50
8069;BME280;4077;43.702;24.896;2023-02-14T11:12:34;100741.84;;;7.92;61.76
8069;BME280;4077;43.702;24.896;2023-02-14T11:17:40;100728.16;;;8.14;59.21
8069;BME280;4077;43.702;24.896;2023-02-14T11:22:44;100736.09;;;8.40;59.41
8069;BME280;4077;43.702;24.896;2023-02-14T11:25:25;100729.22;;;8.39;58.38
8069;BME280;4077;43.702;24.896;2023-02-14T11:28:06;100730.06;;;8.60;58.18
8069;BME280;4077;43.702;24.896;2023-02-14T11:30:39;100727.28;;;8.56;55.89
8069;BME280;4077;43.702;24.896;2023-02-14T11:33:09;100718.91;;;8.39;56.51
8069;BME280;4077;43.702;24.896;2023-02-14T11:35:36;100717.63;;;8.50;57.08
8069;BME280;4077;43.702;24.896;2023-02-14T11:38:05;100708.06;;;8.68;56.06
8069;BME280;4077;43.702;24.896;2023-02-14T11:40:33;100713.78;;;8.61;55.60
8069;BME280;4077;43.702;24.896;2023-02-14T11:43:16;100705.38;;;8.65;55.98
8069;BME280;4077;43.702;24.896;2023-02-14T11:45:45;100702.09;;;8.69;55.50
8069;BME280;4077;43.702;24.896;2023-02-14T11:50:54;100707.75;;;8.83;55.34
8069;BME280;4077;43.702;24.896;2023-02-14T11:53:23;100709.94;;;8.72;54.33
8069;BME280;4077;43.702;24.896;2023-02-14T11:55:53;100690.28;;;8.52;55.53
8069;BME280;4077;43.702;24.896;2023-02-14T11:58:56;100698.25;;;8.58;55.79
8069;BME280;4077;43.702;24.896;2023-02-14T12:01:28;100695.44;;;8.52;55.77
8069;BME280;4077;43.702;24.896;2023-02-14T12:03:58;100693.72;;;8.53;55.32
8069;BME280;4077;43.702;24.896;2023-02-14T12:06:28;100691.63;;;8.65;55.45
8069;BME280;4077;43.702;24.896;2023-02-14T12:12:01;100677.13;;;8.44;56.36
8069;BME280;4077;43.702;24.896;2023-02-14T12:14:31;100670.97;;;8.20;56.48
8069;BME280;4077;43.702;24.896;2023-02-14T12:20:13;100661.50;;;7.98;56.90
8069;BME280;4077;43.702;24.896;2023-02-14T12:22:53;100663.06;;;8.15;56.98
8069;BME280;4077;43.702;24.896;2023-02-14T12:25:24;100664.25;;;8.23;57.25
8069;BME280;4077;43.702;24.896;2023-02-14T12:27:55;100659.66;;;8.16;56.74
8069;BME280;4077;43.702;24.896;2023-02-14T12:30:24;100672.53;;;8.16;56.90
8069;BME280;4077;43.702;24.896;2023-02-14T12:32:54;100661.50;;;8.19;56.76
8069;BME280;4077;43.702;24.896;2023-02-14T12:38:10;100662.91;;;8.33;57.01
8069;BME280;4077;43.702;24.896;2023-02-14T12:46:12;100638.88;;;8.33;56.64
8069;BME280;4077;43.702;24.896;2023-02-14T12:51:15;100636.97;;;8.06;56.73
8069;BME280;4077;43.702;24.896;2023-02-14T12:59:27;100633.84;;;7.92;55.71
8069;BME280;4077;43.702;24.896;2023-02-14T13:16:20;100614.16;;;7.93;58.15
8069;BME280;4077;43.702;24.896;2023-02-14T13:21:39;100601.56;;;7.99;58.39
8069;BME280;4077;43.702;24.896;2023-02-14T13:26:42;100596.31;;;8.18;57.30
8069;BME280;4077;43.702;24.896;2023-02-14T13:29:13;100599.53;;;8.13;56.96
8069;BME280;4077;43.702;24.896;2023-02-14T13:31:40;100595.34;;;8.16;57.25
8069;BME280;4077;43.702;24.896;2023-02-14T13:34:18;100596.91;;;8.11;56.34
8069;BME280;4077;43.702;24.896;2023-02-14T13:36:47;100600.16;;;8.07;56.15
8069;BME280;4077;43.702;24.896;2023-02-14T13:39:24;100602.09;;;8.13;56.97
8069;BME280;4077;43.702;24.896;2023-02-14T13:41:52;100601.84;;;8.07;56.82
8069;BME280;4077;43.702;24.896;2023-02-14T13:44:48;100610.72;;;8.36;56.16
8069;BME280;4077;43.702;24.896;2023-02-14T13:47:24;100611.50;;;8.35;56.61
8069;BME280;4077;43.702;24.896;2023-02-14T13:49:54;100619.94;;;8.31;56.30
8069;BME280;4077;43.702;24.896;2023-02-14T13:55:08;100604.47;;;8.08;58.68
8069;BME280;4077;43.702;24.896;2023-02-14T13:57:39;100609.22;;;7.98;57.96
8069;BME280;4077;43.702;24.896;2023-02-14T14:02:48;100601.84;;;8.07;57.47
8069;BME280;4077;43.702;24.896;2023-02-14T14:10:52;100603.78;;;7.90;58.01
8069;BME280;4077;43.702;24.896;2023-02-14T14:21:37;100602.66;;;7.83;57.17
8069;BME280;4077;43.702;24.896;2023-02-14T14:29:27;100607.78;;;7.83;55.67
8069;BME280;4077;43.702;24.896;2023-02-14T14:31:54;100603.38;;;7.81;55.61
8069;BME280;4077;43.702;24.896;2023-02-14T14:34:25;100611.91;;;7.80;55.89
8069;BME280;4077;43.702;24.896;2023-02-14T14:37:05;100607.47;;;7.76;56.27
8069;BME280;4077;43.702;24.896;2023-02-14T14:39:33;100578.56;;;7.60;56.38
8069;BME280;4077;43.702;24.896;2023-02-14T14:42:33;100596.28;;;7.54;56.61
8069;BME280;4077;43.702;24.896;2023-02-14T14:45:05;100600.44;;;7.51;56.70
8069;BME280;4077;43.702;24.896;2023-02-14T14:47:42;100582.97;;;7.42;57.01
8069;BME280;4077;43.702;24.896;2023-02-14T14:50:15;100595.94;;;7.45;58.08
8069;BME280;4077;43.702;24.896;2023-02-14T14:52:45;100593.00;;;7.36;58.45
8069;BME280;4077;43.702;24.896;2023-02-14T14:55:37;100589.13;;;7.26;59.56
8069;BME280;4077;43.702;24.896;2023-02-14T14:58:36;100589.84;;;7.22;58.20
8069;BME280;4077;43.702;24.896;2023-02-14T15:01:03;100588.75;;;7.17;58.54
8069;BME280;4077;43.702;24.896;2023-02-14T15:03:30;100589.41;;;7.13;58.05
8069;BME280;4077;43.702;24.896;2023-02-14T15:06:17;100588.88;;;7.20;57.23
8069;BME280;4077;43.702;24.896;2023-02-14T15:08:43;100585.16;;;7.13;56.89
8069;BME280;4077;43.702;24.896;2023-02-14T15:11:13;100581.72;;;7.13;57.50
8069;BME280;4077;43.702;24.896;2023-02-14T15:14:05;100573.25;;;6.95;57.84
8069;BME280;4077;43.702;24.896;2023-02-14T15:16:46;100577.25;;;6.88;58.00
8069;BME280;4077;43.702;24.896;2023-02-14T15:22:15;100579.56;;;6.45;60.10
8069;BME280;4077;43.702;24.896;2023-02-14T15:24:41;100581.88;;;6.39;60.39
8069;BME280;4077;43.702;24.896;2023-02-14T15:27:16;100578.63;;;6.43;61.26
8069;BME280;4077;43.702;24.896;2023-02-14T15:30:01;100578.41;;;6.38;61.85
8069;BME280;4077;43.702;24.896;2023-02-14T15:32:30;100575.66;;;6.34;62.68
8069;BME280;4077;43.702;24.896;2023-02-14T15:34:57;100567.31;;;6.20;63.78
8069;BME280;4077;43.702;24.896;2023-02-14T15:37:23;100573.50;;;6.06;64.12
8069;BME280;4077;43.702;24.896;2023-02-14T15:39:52;100580.91;;;5.99;64.77
8069;BME280;4077;43.702;24.896;2023-02-14T15:42:22;100579.97;;;5.81;65.29
8069;BME280;4077;43.702;24.896;2023-02-14T15:47:46;100584.56;;;5.53;66.36
8069;BME280;4077;43.702;24.896;2023-02-14T15:50:19;100583.00;;;5.38;66.63